METAR AND TAF INFORMATION
METAR FOR EGFF
ADDS - METARS form results

(2058 UTC 17 November 2019)
Data provider http://aviationweather.gov/metar/data/
 
METAR text: EGFF 172050Z AUTO 02008KT 9999 OVC017 08/06 Q1015
Conditions at: EGFF (CARDIFF-WALES AR, GB) observed 2050 UTC 17 November 2019
Temperature: 8.0°C (46°F)
Dewpoint: 6.0°C (43°F) [RH = 87%]
Pressure (altimeter): 29.97 inches Hg (1015.0 mb)
Winds: from the NNE (20 degrees) at 9 MPH (8 knots; 4.1 m/s)
Visibility: 6 or more miles (10+ km)
Ceiling: 1700 feet AGL
Clouds: overcast cloud deck at 1700 feet AGL
Weather: no significant weather observed at this time

METAR text: EGFF 172020Z AUTO 02011KT 9999 BKN016 OVC025 08/06 Q1015
Conditions at: EGFF (CARDIFF-WALES AR, GB) observed 2020 UTC 17 November 2019
Temperature: 8.0°C (46°F)
Dewpoint: 6.0°C (43°F) [RH = 87%]
Pressure (altimeter): 29.97 inches Hg (1015.0 mb)
Winds: from the NNE (20 degrees) at 13 MPH (11 knots; 5.7 m/s)
Visibility: 6 or more miles (10+ km)
Ceiling: 1600 feet AGL
Clouds: broken clouds at 1600 feet AGL
overcast cloud deck at 2500 feet AGL
Weather: no significant weather observed at this time

Forecast for: EGFF (CARDIFF-WALES AR, GB)
Text: TAF EGFF 171654Z 1718/1818 02005KT 9999 SCT030
Forecast period: 1800 UTC 17 November 2019 to 1800 UTC 18 November 2019
Forecast type: FROM: standard forecast or significant change
Winds: from the NNE (20 degrees) at 6 MPH (5 knots; 2.6 m/s)
Visibility: 6 or more miles 10+ km)
Ceiling: at least 12,000 feet AGL
Clouds: scattered clouds at 3000 feet AGL
Weather: no significant weather forecast for this period
Text: PROB30
Forecast period: 1800 UTC 17 November 2019 to 0000 UTC 18 November 2019
Forecast type: TEMPORARY: The following changes expected for less than half the time period
Visibility: 5 miles (8 km)
Ceiling: 1400 feet AGL
Clouds: broken clouds at 1400 feet AGL
Weather: -RA -DZ  (light rain, light drizzle)

 AIRPORT MAP

 RUNWAY INFORMATION
Runway 12 Runway length 7848 ft Runway width 151 ft
Runway elevation 205 ft Runway displaced threshold 797 ft Runway heading 117
Runway 30 Runway length 7848 ft Runway width 151 ft
Runway elevation 213 ft Runway displaced threshold 551 ft Runway heading 297

 AIRPORT FREQUENCIES
Type APP Name Cardiff Ap Frequency 119.15 MHZ
Type APP Name Cardiff Ra Frequency 125.85 MHZ
Type ATIS Name ATIS Frequency 132.475 MHZ
Type Radar Name Frequency 133.6 MHZ
Type TWR Name Cardiff Tw Frequency 133.1 MHZ

 AIRPORT NEAR NAVIGATION AIDS



Powered by Western Air Virtual